sensor_id;sensor_type;location;lat;lon;timestamp;P1;durP1;ratioP1;P2;durP2;ratioP2
12788;SDS011;6458;42.710;23.192;2024-03-02T00:01:36;23.77;;;12.80;;
12788;SDS011;6458;42.710;23.192;2024-03-02T00:04:03;22.23;;;12.70;;
12788;SDS011;6458;42.710;23.192;2024-03-02T00:06:31;25.80;;;14.00;;
12788;SDS011;6458;42.710;23.192;2024-03-02T00:08:58;19.07;;;12.47;;
12788;SDS011;6458;42.710;23.192;2024-03-02T00:11:33;27.37;;;14.20;;
12788;SDS011;6458;42.710;23.192;2024-03-02T00:14:01;25.33;;;14.80;;
12788;SDS011;6458;42.710;23.192;2024-03-02T00:16:31;27.37;;;15.00;;
12788;SDS011;6458;42.710;23.192;2024-03-02T00:19:01;27.87;;;14.33;;
12788;SDS011;6458;42.710;23.192;2024-03-02T00:21:28;21.97;;;14.03;;
12788;SDS011;6458;42.710;23.192;2024-03-02T00:23:57;21.53;;;13.67;;
12788;SDS011;6458;42.710;23.192;2024-03-02T00:26:24;23.83;;;14.47;;
12788;SDS011;6458;42.710;23.192;2024-03-02T00:28:52;20.50;;;14.13;;
12788;SDS011;6458;42.710;23.192;2024-03-02T00:31:22;28.73;;;15.00;;
12788;SDS011;6458;42.710;23.192;2024-03-02T00:33:51;24.50;;;13.20;;
12788;SDS011;6458;42.710;23.192;2024-03-02T00:36:22;23.40;;;13.93;;
12788;SDS011;6458;42.710;23.192;2024-03-02T00:38:51;25.43;;;13.27;;
12788;SDS011;6458;42.710;23.192;2024-03-02T00:41:20;20.90;;;13.10;;
12788;SDS011;6458;42.710;23.192;2024-03-02T00:43:51;24.73;;;13.27;;
12788;SDS011;6458;42.710;23.192;2024-03-02T00:46:24;21.97;;;12.87;;
12788;SDS011;6458;42.710;23.192;2024-03-02T00:48:53;24.93;;;14.47;;
12788;SDS011;6458;42.710;23.192;2024-03-02T00:51:21;20.43;;;12.63;;
12788;SDS011;6458;42.710;23.192;2024-03-02T00:53:49;21.57;;;13.43;;
12788;SDS011;6458;42.710;23.192;2024-03-02T00:56:16;23.03;;;12.93;;
12788;SDS011;6458;42.710;23.192;2024-03-02T00:58:44;24.07;;;14.77;;
12788;SDS011;6458;42.710;23.192;2024-03-02T01:01:11;20.87;;;13.23;;
12788;SDS011;6458;42.710;23.192;2024-03-02T01:03:37;27.70;;;14.77;;
12788;SDS011;6458;42.710;23.192;2024-03-02T01:06:06;29.93;;;17.27;;
12788;SDS011;6458;42.710;23.192;2024-03-02T01:08:33;28.83;;;17.27;;
12788;SDS011;6458;42.710;23.192;2024-03-02T01:11:01;29.57;;;17.33;;
12788;SDS011;6458;42.710;23.192;2024-03-02T01:13:28;29.93;;;17.63;;
12788;SDS011;6458;42.710;23.192;2024-03-02T01:15:55;31.67;;;17.37;;
12788;SDS011;6458;42.710;23.192;2024-03-02T01:18:22;32.33;;;18.53;;
12788;SDS011;6458;42.710;23.192;2024-03-02T01:20:50;31.53;;;18.23;;
12788;SDS011;6458;42.710;23.192;2024-03-02T01:23:19;33.40;;;19.20;;
12788;SDS011;6458;42.710;23.192;2024-03-02T01:25:46;35.63;;;18.80;;
12788;SDS011;6458;42.710;23.192;2024-03-02T01:28:13;31.60;;;20.13;;
12788;SDS011;6458;42.710;23.192;2024-03-02T01:30:41;35.43;;;18.87;;
12788;SDS011;6458;42.710;23.192;2024-03-02T01:33:08;36.70;;;19.10;;
12788;SDS011;6458;42.710;23.192;2024-03-02T01:35:35;33.60;;;18.37;;
12788;SDS011;6458;42.710;23.192;2024-03-02T01:38:03;34.57;;;19.37;;
12788;SDS011;6458;42.710;23.192;2024-03-02T01:40:32;40.53;;;18.67;;
12788;SDS011;6458;42.710;23.192;2024-03-02T01:43:00;32.70;;;17.33;;
12788;SDS011;6458;42.710;23.192;2024-03-02T01:45:27;38.10;;;19.80;;
12788;SDS011;6458;42.710;23.192;2024-03-02T01:47:54;30.73;;;17.77;;
12788;SDS011;6458;42.710;23.192;2024-03-02T01:50:24;36.07;;;19.50;;
12788;SDS011;6458;42.710;23.192;2024-03-02T01:52:52;32.70;;;17.10;;
12788;SDS011;6458;42.710;23.192;2024-03-02T01:55:19;36.10;;;19.03;;
12788;SDS011;6458;42.710;23.192;2024-03-02T01:57:48;35.03;;;20.07;;
12788;SDS011;6458;42.710;23.192;2024-03-02T02:00:16;32.50;;;18.33;;
12788;SDS011;6458;42.710;23.192;2024-03-02T02:02:43;33.90;;;18.03;;
12788;SDS011;6458;42.710;23.192;2024-03-02T02:05:10;35.37;;;19.60;;
12788;SDS011;6458;42.710;23.192;2024-03-02T02:07:40;32.50;;;18.90;;
12788;SDS011;6458;42.710;23.192;2024-03-02T02:10:07;35.60;;;20.43;;
12788;SDS011;6458;42.710;23.192;2024-03-02T02:12:34;32.73;;;18.10;;
12788;SDS011;6458;42.710;23.192;2024-03-02T02:15:14;31.47;;;17.27;;
12788;SDS011;6458;42.710;23.192;2024-03-02T02:17:48;32.37;;;18.37;;
12788;SDS011;6458;42.710;23.192;2024-03-02T02:20:15;37.30;;;18.90;;
12788;SDS011;6458;42.710;23.192;2024-03-02T02:22:56;31.93;;;17.93;;
12788;SDS011;6458;42.710;23.192;2024-03-02T02:25:27;34.77;;;18.30;;
12788;SDS011;6458;42.710;23.192;2024-03-02T02:27:54;35.50;;;19.07;;
12788;SDS011;6458;42.710;23.192;2024-03-02T02:30:23;33.73;;;18.77;;
12788;SDS011;6458;42.710;23.192;2024-03-02T02:32:53;34.27;;;17.57;;
12788;SDS011;6458;42.710;23.192;2024-03-02T02:35:20;31.50;;;19.07;;
12788;SDS011;6458;42.710;23.192;2024-03-02T02:37:49;31.90;;;18.40;;
12788;SDS011;6458;42.710;23.192;2024-03-02T02:40:20;33.97;;;19.60;;
12788;SDS011;6458;42.710;23.192;2024-03-02T02:42:47;34.67;;;19.07;;
12788;SDS011;6458;42.710;23.192;2024-03-02T02:45:14;35.33;;;17.97;;
12788;SDS011;6458;42.710;23.192;2024-03-02T02:47:42;34.73;;;19.57;;
12788;SDS011;6458;42.710;23.192;2024-03-02T02:50:10;34.87;;;18.47;;
12788;SDS011;6458;42.710;23.192;2024-03-02T02:52:38;32.47;;;19.10;;
12788;SDS011;6458;42.710;23.192;2024-03-02T02:55:07;34.87;;;19.13;;
12788;SDS011;6458;42.710;23.192;2024-03-02T02:57:36;37.30;;;18.83;;
12788;SDS011;6458;42.710;23.192;2024-03-02T03:00:06;31.37;;;18.43;;
12788;SDS011;6458;42.710;23.192;2024-03-02T03:02:40;33.40;;;18.57;;
12788;SDS011;6458;42.710;23.192;2024-03-02T03:05:08;35.20;;;19.70;;
12788;SDS011;6458;42.710;23.192;2024-03-02T03:07:35;36.43;;;18.97;;
12788;SDS011;6458;42.710;23.192;2024-03-02T03:10:05;32.70;;;18.83;;
12788;SDS011;6458;42.710;23.192;2024-03-02T03:12:33;30.77;;;18.27;;
12788;SDS011;6458;42.710;23.192;2024-03-02T03:15:01;33.17;;;18.27;;
12788;SDS011;6458;42.710;23.192;2024-03-02T03:17:29;34.23;;;18.73;;
12788;SDS011;6458;42.710;23.192;2024-03-02T03:19:56;32.90;;;18.07;;
12788;SDS011;6458;42.710;23.192;2024-03-02T03:22:23;31.40;;;18.07;;
12788;SDS011;6458;42.710;23.192;2024-03-02T03:24:50;36.03;;;18.97;;
12788;SDS011;6458;42.710;23.192;2024-03-02T03:27:17;31.40;;;18.63;;
12788;SDS011;6458;42.710;23.192;2024-03-02T03:29:44;29.83;;;17.67;;
12788;SDS011;6458;42.710;23.192;2024-03-02T03:32:13;36.33;;;18.97;;
12788;SDS011;6458;42.710;23.192;2024-03-02T03:34:40;35.43;;;19.13;;
12788;SDS011;6458;42.710;23.192;2024-03-02T03:37:07;36.77;;;17.73;;
12788;SDS011;6458;42.710;23.192;2024-03-02T03:42:26;36.93;;;18.70;;
12788;SDS011;6458;42.710;23.192;2024-03-02T03:44:53;37.10;;;19.33;;
12788;SDS011;6458;42.710;23.192;2024-03-02T03:47:21;33.27;;;18.87;;
12788;SDS011;6458;42.710;23.192;2024-03-02T03:49:48;37.67;;;20.33;;
12788;SDS011;6458;42.710;23.192;2024-03-02T03:52:15;33.13;;;18.47;;
12788;SDS011;6458;42.710;23.192;2024-03-02T03:54:42;38.60;;;18.93;;
12788;SDS011;6458;42.710;23.192;2024-03-02T03:57:09;34.43;;;18.97;;
12788;SDS011;6458;42.710;23.192;2024-03-02T03:59:36;32.17;;;18.20;;
12788;SDS011;6458;42.710;23.192;2024-03-02T04:02:03;32.80;;;19.17;;
12788;SDS011;6458;42.710;23.192;2024-03-02T04:04:32;39.90;;;22.10;;
12788;SDS011;6458;42.710;23.192;2024-03-02T04:06:59;33.53;;;18.97;;
12788;SDS011;6458;42.710;23.192;2024-03-02T04:09:26;31.63;;;19.67;;
12788;SDS011;6458;42.710;23.192;2024-03-02T04:11:53;31.40;;;18.60;;
12788;SDS011;6458;42.710;23.192;2024-03-02T04:14:20;35.37;;;17.90;;
12788;SDS011;6458;42.710;23.192;2024-03-02T04:16:47;38.90;;;18.47;;
12788;SDS011;6458;42.710;23.192;2024-03-02T04:19:14;35.00;;;20.00;;
12788;SDS011;6458;42.710;23.192;2024-03-02T04:21:43;30.27;;;17.63;;
12788;SDS011;6458;42.710;23.192;2024-03-02T04:27:00;38.03;;;19.70;;
12788;SDS011;6458;42.710;23.192;2024-03-02T04:29:27;38.10;;;20.53;;
12788;SDS011;6458;42.710;23.192;2024-03-02T04:31:54;35.43;;;19.17;;
12788;SDS011;6458;42.710;23.192;2024-03-02T04:34:21;38.50;;;23.67;;
12788;SDS011;6458;42.710;23.192;2024-03-02T04:36:50;32.00;;;18.93;;
12788;SDS011;6458;42.710;23.192;2024-03-02T04:39:16;33.30;;;19.33;;
12788;SDS011;6458;42.710;23.192;2024-03-02T04:41:43;39.07;;;21.60;;
12788;SDS011;6458;42.710;23.192;2024-03-02T04:44:11;36.93;;;19.57;;
12788;SDS011;6458;42.710;23.192;2024-03-02T04:46:38;35.37;;;19.10;;
12788;SDS011;6458;42.710;23.192;2024-03-02T04:49:05;34.73;;;20.10;;
12788;SDS011;6458;42.710;23.192;2024-03-02T04:51:34;35.77;;;19.63;;
12788;SDS011;6458;42.710;23.192;2024-03-02T04:54:03;36.33;;;19.33;;
12788;SDS011;6458;42.710;23.192;2024-03-02T04:56:30;34.93;;;19.70;;
12788;SDS011;6458;42.710;23.192;2024-03-02T04:59:09;33.00;;;18.57;;
12788;SDS011;6458;42.710;23.192;2024-03-02T05:01:37;32.07;;;18.23;;
12788;SDS011;6458;42.710;23.192;2024-03-02T05:04:08;34.00;;;19.43;;
12788;SDS011;6458;42.710;23.192;2024-03-02T05:06:36;38.00;;;20.07;;
12788;SDS011;6458;42.710;23.192;2024-03-02T05:11:49;35.23;;;20.23;;
12788;SDS011;6458;42.710;23.192;2024-03-02T05:14:48;34.50;;;18.87;;
12788;SDS011;6458;42.710;23.192;2024-03-02T05:17:15;32.33;;;18.87;;
12788;SDS011;6458;42.710;23.192;2024-03-02T05:22:34;33.90;;;18.50;;
12788;SDS011;6458;42.710;23.192;2024-03-02T05:25:09;38.87;;;20.20;;
12788;SDS011;6458;42.710;23.192;2024-03-02T05:30:32;33.40;;;19.43;;
12788;SDS011;6458;42.710;23.192;2024-03-02T05:33:00;31.77;;;17.70;;
12788;SDS011;6458;42.710;23.192;2024-03-02T05:38:28;33.97;;;18.30;;
12788;SDS011;6458;42.710;23.192;2024-03-02T05:40:57;35.10;;;19.13;;
12788;SDS011;6458;42.710;23.192;2024-03-02T05:43:24;34.23;;;18.53;;
12788;SDS011;6458;42.710;23.192;2024-03-02T05:45:51;32.33;;;17.93;;
12788;SDS011;6458;42.710;23.192;2024-03-02T05:48:18;38.13;;;19.70;;
12788;SDS011;6458;42.710;23.192;2024-03-02T05:50:45;33.97;;;16.73;;
12788;SDS011;6458;42.710;23.192;2024-03-02T05:53:17;32.93;;;17.13;;
12788;SDS011;6458;42.710;23.192;2024-03-02T05:58:21;32.80;;;17.23;;
12788;SDS011;6458;42.710;23.192;2024-03-02T06:00:59;35.43;;;18.23;;
12788;SDS011;6458;42.710;23.192;2024-03-02T06:03:38;35.97;;;18.13;;
12788;SDS011;6458;42.710;23.192;2024-03-02T06:06:05;34.53;;;18.40;;
12788;SDS011;6458;42.710;23.192;2024-03-02T06:11:27;30.37;;;17.83;;
12788;SDS011;6458;42.710;23.192;2024-03-02T06:13:55;43.50;;;20.57;;
12788;SDS011;6458;42.710;23.192;2024-03-02T06:16:22;38.47;;;17.93;;
12788;SDS011;6458;42.710;23.192;2024-03-02T06:18:49;36.10;;;19.10;;
12788;SDS011;6458;42.710;23.192;2024-03-02T06:21:16;31.03;;;17.77;;
12788;SDS011;6458;42.710;23.192;2024-03-02T06:24:00;34.97;;;17.93;;
12788;SDS011;6458;42.710;23.192;2024-03-02T06:26:27;29.37;;;18.00;;
12788;SDS011;6458;42.710;23.192;2024-03-02T06:28:56;28.50;;;17.17;;
12788;SDS011;6458;42.710;23.192;2024-03-02T06:31:23;37.90;;;18.07;;
12788;SDS011;6458;42.710;23.192;2024-03-02T06:33:50;38.47;;;18.97;;
12788;SDS011;6458;42.710;23.192;2024-03-02T06:36:17;37.97;;;18.57;;
12788;SDS011;6458;42.710;23.192;2024-03-02T06:38:50;35.47;;;17.80;;
12788;SDS011;6458;42.710;23.192;2024-03-02T06:43:49;35.80;;;18.17;;
12788;SDS011;6458;42.710;23.192;2024-03-02T06:46:21;35.50;;;16.67;;
12788;SDS011;6458;42.710;23.192;2024-03-02T06:48:47;37.27;;;19.10;;
12788;SDS011;6458;42.710;23.192;2024-03-02T06:51:14;38.40;;;20.03;;
12788;SDS011;6458;42.710;23.192;2024-03-02T06:53:41;39.17;;;18.67;;
12788;SDS011;6458;42.710;23.192;2024-03-02T06:59:02;34.13;;;20.47;;
12788;SDS011;6458;42.710;23.192;2024-03-02T07:01:31;41.23;;;19.83;;
12788;SDS011;6458;42.710;23.192;2024-03-02T07:03:58;39.37;;;20.03;;
12788;SDS011;6458;42.710;23.192;2024-03-02T07:06:25;40.23;;;20.70;;
12788;SDS011;6458;42.710;23.192;2024-03-02T07:08:51;40.77;;;20.07;;
12788;SDS011;6458;42.710;23.192;2024-03-02T07:11:18;38.10;;;20.20;;
12788;SDS011;6458;42.710;23.192;2024-03-02T07:13:45;39.87;;;18.67;;
12788;SDS011;6458;42.710;23.192;2024-03-02T07:16:12;37.30;;;19.93;;
12788;SDS011;6458;42.710;23.192;2024-03-02T07:18:54;46.83;;;19.20;;
12788;SDS011;6458;42.710;23.192;2024-03-02T07:21:30;41.93;;;18.77;;
12788;SDS011;6458;42.710;23.192;2024-03-02T07:26:29;41.57;;;18.87;;
12788;SDS011;6458;42.710;23.192;2024-03-02T07:28:57;38.80;;;19.93;;
12788;SDS011;6458;42.710;23.192;2024-03-02T07:31:24;40.17;;;20.67;;
12788;SDS011;6458;42.710;23.192;2024-03-02T07:33:51;50.20;;;22.10;;
12788;SDS011;6458;42.710;23.192;2024-03-02T07:36:19;44.30;;;20.40;;
12788;SDS011;6458;42.710;23.192;2024-03-02T07:38:46;44.83;;;21.10;;
12788;SDS011;6458;42.710;23.192;2024-03-02T07:41:15;46.13;;;22.10;;
12788;SDS011;6458;42.710;23.192;2024-03-02T07:43:42;39.50;;;20.27;;
12788;SDS011;6458;42.710;23.192;2024-03-02T07:46:09;35.10;;;18.93;;
12788;SDS011;6458;42.710;23.192;2024-03-02T07:48:39;37.00;;;18.33;;
12788;SDS011;6458;42.710;23.192;2024-03-02T07:51:05;28.57;;;15.40;;
12788;SDS011;6458;42.710;23.192;2024-03-02T07:53:34;18.27;;;12.10;;
12788;SDS011;6458;42.710;23.192;2024-03-02T07:56:03;16.07;;;6.87;;
12788;SDS011;6458;42.710;23.192;2024-03-02T07:58:33;3.17;;;3.00;;
12788;SDS011;6458;42.710;23.192;2024-03-02T08:01:00;0.70;;;0.70;;
12788;SDS011;6458;42.710;23.192;2024-03-02T08:03:28;0.80;;;0.80;;
12788;SDS011;6458;42.710;23.192;2024-03-02T08:05:57;0.80;;;0.80;;
12788;SDS011;6458;42.710;23.192;2024-03-02T08:08:24;0.90;;;0.90;;
12788;SDS011;6458;42.710;23.192;2024-03-02T08:10:52;0.90;;;0.90;;
12788;SDS011;6458;42.710;23.192;2024-03-02T08:16:15;0.80;;;0.80;;
12788;SDS011;6458;42.710;23.192;2024-03-02T08:18:45;0.90;;;0.90;;
12788;SDS011;6458;42.710;23.192;2024-03-02T08:24:00;0.93;;;0.93;;
12788;SDS011;6458;42.710;23.192;2024-03-02T08:26:29;0.90;;;0.90;;
12788;SDS011;6458;42.710;23.192;2024-03-02T08:28:57;0.80;;;0.80;;
12788;SDS011;6458;42.710;23.192;2024-03-02T08:34:48;0.70;;;0.70;;
12788;SDS011;6458;42.710;23.192;2024-03-02T08:37:15;0.90;;;0.90;;
12788;SDS011;6458;42.710;23.192;2024-03-02T08:39:42;0.90;;;0.90;;
12788;SDS011;6458;42.710;23.192;2024-03-02T08:42:14;0.80;;;0.80;;
12788;SDS011;6458;42.710;23.192;2024-03-02T08:44:40;1.00;;;1.00;;
12788;SDS011;6458;42.710;23.192;2024-03-02T08:47:09;0.80;;;0.80;;
12788;SDS011;6458;42.710;23.192;2024-03-02T08:49:36;0.90;;;0.90;;
12788;SDS011;6458;42.710;23.192;2024-03-02T08:52:02;0.80;;;0.80;;
12788;SDS011;6458;42.710;23.192;2024-03-02T08:54:29;0.80;;;0.80;;
12788;SDS011;6458;42.710;23.192;2024-03-02T08:56:58;0.97;;;0.97;;
12788;SDS011;6458;42.710;23.192;2024-03-02T08:59:27;1.00;;;1.00;;
12788;SDS011;6458;42.710;23.192;2024-03-02T09:01:54;0.80;;;0.80;;
12788;SDS011;6458;42.710;23.192;2024-03-02T09:04:21;0.90;;;0.90;;
12788;SDS011;6458;42.710;23.192;2024-03-02T09:06:48;0.80;;;0.80;;
12788;SDS011;6458;42.710;23.192;2024-03-02T09:09:14;0.70;;;0.70;;
12788;SDS011;6458;42.710;23.192;2024-03-02T09:11:41;0.90;;;0.90;;
12788;SDS011;6458;42.710;23.192;2024-03-02T09:14:11;0.90;;;0.90;;
12788;SDS011;6458;42.710;23.192;2024-03-02T09:16:41;2.20;;;2.20;;
12788;SDS011;6458;42.710;23.192;2024-03-02T09:19:09;0.80;;;0.80;;
12788;SDS011;6458;42.710;23.192;2024-03-02T09:21:36;0.90;;;0.90;;
12788;SDS011;6458;42.710;23.192;2024-03-02T09:24:03;0.60;;;0.60;;
12788;SDS011;6458;42.710;23.192;2024-03-02T09:26:31;0.70;;;0.70;;
12788;SDS011;6458;42.710;23.192;2024-03-02T09:28:58;0.70;;;0.70;;
12788;SDS011;6458;42.710;23.192;2024-03-02T09:31:25;0.70;;;0.70;;
12788;SDS011;6458;42.710;23.192;2024-03-02T09:33:54;0.90;;;0.90;;
12788;SDS011;6458;42.710;23.192;2024-03-02T09:36:27;0.70;;;0.70;;
12788;SDS011;6458;42.710;23.192;2024-03-02T09:38:54;0.80;;;0.80;;
12788;SDS011;6458;42.710;23.192;2024-03-02T09:41:22;0.60;;;0.60;;
12788;SDS011;6458;42.710;23.192;2024-03-02T09:43:49;0.70;;;0.70;;
12788;SDS011;6458;42.710;23.192;2024-03-02T09:49:03;0.90;;;0.90;;
12788;SDS011;6458;42.710;23.192;2024-03-02T09:51:31;0.80;;;0.80;;
12788;SDS011;6458;42.710;23.192;2024-03-02T09:53:58;0.60;;;0.60;;
12788;SDS011;6458;42.710;23.192;2024-03-02T09:56:27;0.60;;;0.60;;
12788;SDS011;6458;42.710;23.192;2024-03-02T09:58:57;0.70;;;0.70;;
12788;SDS011;6458;42.710;23.192;2024-03-02T10:01:24;0.60;;;0.60;;
12788;SDS011;6458;42.710;23.192;2024-03-02T10:03:51;0.70;;;0.70;;
12788;SDS011;6458;42.710;23.192;2024-03-02T10:06:21;0.60;;;0.60;;
12788;SDS011;6458;42.710;23.192;2024-03-02T10:08:52;0.50;;;0.50;;
12788;SDS011;6458;42.710;23.192;2024-03-02T10:11:26;0.60;;;0.60;;
12788;SDS011;6458;42.710;23.192;2024-03-02T10:14:05;0.67;;;0.67;;
12788;SDS011;6458;42.710;23.192;2024-03-02T10:16:34;0.90;;;0.90;;
12788;SDS011;6458;42.710;23.192;2024-03-02T10:19:15;0.70;;;0.70;;
12788;SDS011;6458;42.710;23.192;2024-03-02T10:21:44;0.60;;;0.60;;
12788;SDS011;6458;42.710;23.192;2024-03-02T10:27:10;6.50;;;6.20;;
12788;SDS011;6458;42.710;23.192;2024-03-02T10:32:44;0.90;;;0.90;;
12788;SDS011;6458;42.710;23.192;2024-03-02T10:35:20;0.70;;;0.70;;
12788;SDS011;6458;42.710;23.192;2024-03-02T10:37:49;0.67;;;0.67;;
12788;SDS011;6458;42.710;23.192;2024-03-02T10:45:59;0.67;;;0.67;;
12788;SDS011;6458;42.710;23.192;2024-03-02T10:48:26;3.00;;;2.87;;
12788;SDS011;6458;42.710;23.192;2024-03-02T10:50:54;0.70;;;0.70;;
12788;SDS011;6458;42.710;23.192;2024-03-02T10:53:27;0.60;;;0.60;;
12788;SDS011;6458;42.710;23.192;2024-03-02T10:56:19;0.74;;;0.74;;
12788;SDS011;6458;42.710;23.192;2024-03-02T10:59:13;0.70;;;0.70;;
12788;SDS011;6458;42.710;23.192;2024-03-02T11:01:45;0.60;;;0.60;;
12788;SDS011;6458;42.710;23.192;2024-03-02T11:04:15;0.70;;;0.70;;
12788;SDS011;6458;42.710;23.192;2024-03-02T11:06:47;0.77;;;0.77;;
12788;SDS011;6458;42.710;23.192;2024-03-02T11:09:18;1.23;;;1.23;;
12788;SDS011;6458;42.710;23.192;2024-03-02T11:11:49;0.60;;;0.60;;
12788;SDS011;6458;42.710;23.192;2024-03-02T11:14:31;0.70;;;0.70;;
12788;SDS011;6458;42.710;23.192;2024-03-02T11:17:04;1.07;;;1.07;;
12788;SDS011;6458;42.710;23.192;2024-03-02T11:19:32;1.30;;;1.30;;
12788;SDS011;6458;42.710;23.192;2024-03-02T11:22:02;0.60;;;0.60;;
12788;SDS011;6458;42.710;23.192;2024-03-02T11:24:34;1.40;;;1.40;;
12788;SDS011;6458;42.710;23.192;2024-03-02T11:27:02;0.70;;;0.70;;
12788;SDS011;6458;42.710;23.192;2024-03-02T11:29:44;0.70;;;0.70;;
12788;SDS011;6458;42.710;23.192;2024-03-02T11:32:16;0.80;;;0.80;;
12788;SDS011;6458;42.710;23.192;2024-03-02T11:34:45;0.60;;;0.60;;
12788;SDS011;6458;42.710;23.192;2024-03-02T11:37:14;0.77;;;0.77;;
12788;SDS011;6458;42.710;23.192;2024-03-02T11:39:44;0.57;;;0.57;;
12788;SDS011;6458;42.710;23.192;2024-03-02T11:42:12;0.70;;;0.70;;
12788;SDS011;6458;42.710;23.192;2024-03-02T11:44:44;0.70;;;0.70;;
12788;SDS011;6458;42.710;23.192;2024-03-02T11:50:35;0.60;;;0.60;;
12788;SDS011;6458;42.710;23.192;2024-03-02T11:56:30;0.77;;;0.77;;
12788;SDS011;6458;42.710;23.192;2024-03-02T12:02:25;0.70;;;0.70;;
12788;SDS011;6458;42.710;23.192;2024-03-02T12:04:52;0.53;;;0.53;;
12788;SDS011;6458;42.710;23.192;2024-03-02T12:07:25;0.60;;;0.60;;
12788;SDS011;6458;42.710;23.192;2024-03-02T12:09:59;0.60;;;0.60;;
12788;SDS011;6458;42.710;23.192;2024-03-02T12:12:37;0.50;;;0.50;;
12788;SDS011;6458;42.710;23.192;2024-03-02T12:15:13;0.60;;;0.60;;
12788;SDS011;6458;42.710;23.192;2024-03-02T12:17:42;0.80;;;0.80;;
12788;SDS011;6458;42.710;23.192;2024-03-02T12:21:30;0.50;;;0.50;;
12788;SDS011;6458;42.710;23.192;2024-03-02T12:26:44;0.60;;;0.60;;
12788;SDS011;6458;42.710;23.192;2024-03-02T12:29:13;0.70;;;0.70;;
12788;SDS011;6458;42.710;23.192;2024-03-02T12:31:44;0.70;;;0.70;;
12788;SDS011;6458;42.710;23.192;2024-03-02T12:34:17;0.73;;;0.73;;
12788;SDS011;6458;42.710;23.192;2024-03-02T12:36:52;0.70;;;0.70;;
12788;SDS011;6458;42.710;23.192;2024-03-02T12:39:39;0.80;;;0.80;;
12788;SDS011;6458;42.710;23.192;2024-03-02T12:42:06;0.90;;;0.90;;
12788;SDS011;6458;42.710;23.192;2024-03-02T12:44:35;0.73;;;0.73;;
12788;SDS011;6458;42.710;23.192;2024-03-02T12:47:07;0.70;;;0.70;;
12788;SDS011;6458;42.710;23.192;2024-03-02T12:49:34;0.70;;;0.70;;
12788;SDS011;6458;42.710;23.192;2024-03-02T12:52:05;0.60;;;0.60;;
12788;SDS011;6458;42.710;23.192;2024-03-02T12:54:35;0.67;;;0.67;;
12788;SDS011;6458;42.710;23.192;2024-03-02T12:57:04;0.80;;;0.80;;
12788;SDS011;6458;42.710;23.192;2024-03-02T12:59:39;0.70;;;0.70;;
12788;SDS011;6458;42.710;23.192;2024-03-02T13:02:16;0.73;;;0.73;;
12788;SDS011;6458;42.710;23.192;2024-03-02T13:04:44;0.80;;;0.80;;
12788;SDS011;6458;42.710;23.192;2024-03-02T13:07:13;2.10;;;2.10;;
12788;SDS011;6458;42.710;23.192;2024-03-02T13:09:43;0.80;;;0.80;;
12788;SDS011;6458;42.710;23.192;2024-03-02T13:12:14;0.80;;;0.80;;
12788;SDS011;6458;42.710;23.192;2024-03-02T13:14:49;0.80;;;0.80;;
12788;SDS011;6458;42.710;23.192;2024-03-02T13:17:18;0.63;;;0.63;;
12788;SDS011;6458;42.710;23.192;2024-03-02T13:19:54;1.30;;;1.30;;
12788;SDS011;6458;42.710;23.192;2024-03-02T13:22:44;0.80;;;0.80;;
12788;SDS011;6458;42.710;23.192;2024-03-02T13:25:11;1.00;;;1.00;;
12788;SDS011;6458;42.710;23.192;2024-03-02T13:27:39;0.90;;;0.90;;
12788;SDS011;6458;42.710;23.192;2024-03-02T13:30:09;1.43;;;1.43;;
12788;SDS011;6458;42.710;23.192;2024-03-02T13:32:36;0.97;;;0.97;;
12788;SDS011;6458;42.710;23.192;2024-03-02T13:35:12;0.80;;;0.80;;
12788;SDS011;6458;42.710;23.192;2024-03-02T13:37:41;0.80;;;0.80;;
12788;SDS011;6458;42.710;23.192;2024-03-02T13:40:08;0.60;;;0.60;;
12788;SDS011;6458;42.710;23.192;2024-03-02T13:42:42;0.73;;;0.73;;
12788;SDS011;6458;42.710;23.192;2024-03-02T13:45:12;0.80;;;0.80;;
12788;SDS011;6458;42.710;23.192;2024-03-02T13:47:39;0.70;;;0.70;;
12788;SDS011;6458;42.710;23.192;2024-03-02T13:50:10;0.80;;;0.80;;
12788;SDS011;6458;42.710;23.192;2024-03-02T13:52:49;0.70;;;0.70;;
12788;SDS011;6458;42.710;23.192;2024-03-02T13:55:21;0.83;;;0.83;;
12788;SDS011;6458;42.710;23.192;2024-03-02T13:57:54;0.77;;;0.77;;
12788;SDS011;6458;42.710;23.192;2024-03-02T14:03:48;0.70;;;0.70;;
12788;SDS011;6458;42.710;23.192;2024-03-02T14:06:21;0.70;;;0.70;;
12788;SDS011;6458;42.710;23.192;2024-03-02T14:08:55;1.30;;;1.30;;
12788;SDS011;6458;42.710;23.192;2024-03-02T14:11:22;0.90;;;0.90;;
12788;SDS011;6458;42.710;23.192;2024-03-02T14:13:49;0.80;;;0.80;;
12788;SDS011;6458;42.710;23.192;2024-03-02T14:16:19;0.60;;;0.60;;
12788;SDS011;6458;42.710;23.192;2024-03-02T14:18:51;0.70;;;0.70;;
12788;SDS011;6458;42.710;23.192;2024-03-02T14:21:18;0.70;;;0.70;;
12788;SDS011;6458;42.710;23.192;2024-03-02T14:23:45;1.03;;;1.03;;
12788;SDS011;6458;42.710;23.192;2024-03-02T14:26:12;0.70;;;0.70;;
12788;SDS011;6458;42.710;23.192;2024-03-02T14:28:39;2.70;;;2.60;;
12788;SDS011;6458;42.710;23.192;2024-03-02T14:31:07;2.40;;;2.30;;
12788;SDS011;6458;42.710;23.192;2024-03-02T14:33:40;0.87;;;0.87;;
12788;SDS011;6458;42.710;23.192;2024-03-02T14:36:19;1.53;;;1.53;;
12788;SDS011;6458;42.710;23.192;2024-03-02T14:38:48;0.63;;;0.63;;
12788;SDS011;6458;42.710;23.192;2024-03-02T14:41:25;1.47;;;1.47;;
12788;SDS011;6458;42.710;23.192;2024-03-02T14:43:54;0.60;;;0.60;;
12788;SDS011;6458;42.710;23.192;2024-03-02T14:46:24;0.70;;;0.70;;
12788;SDS011;6458;42.710;23.192;2024-03-02T14:48:55;0.70;;;0.70;;
12788;SDS011;6458;42.710;23.192;2024-03-02T14:51:24;0.50;;;0.50;;
12788;SDS011;6458;42.710;23.192;2024-03-02T14:53:51;0.40;;;0.40;;
12788;SDS011;6458;42.710;23.192;2024-03-02T14:56:24;1.43;;;1.43;;
12788;SDS011;6458;42.710;23.192;2024-03-02T14:58:54;0.63;;;0.63;;
12788;SDS011;6458;42.710;23.192;2024-03-02T15:01:21;0.60;;;0.60;;
12788;SDS011;6458;42.710;23.192;2024-03-02T15:03:49;0.50;;;0.50;;
12788;SDS011;6458;42.710;23.192;2024-03-02T15:06:17;0.60;;;0.60;;
12788;SDS011;6458;42.710;23.192;2024-03-02T15:08:45;0.60;;;0.60;;
12788;SDS011;6458;42.710;23.192;2024-03-02T15:11:17;1.27;;;1.27;;
12788;SDS011;6458;42.710;23.192;2024-03-02T15:13:53;0.50;;;0.50;;
12788;SDS011;6458;42.710;23.192;2024-03-02T15:16:20;0.60;;;0.60;;
12788;SDS011;6458;42.710;23.192;2024-03-02T15:21:31;0.60;;;0.60;;
12788;SDS011;6458;42.710;23.192;2024-03-02T15:24:25;0.90;;;0.90;;
12788;SDS011;6458;42.710;23.192;2024-03-02T15:26:53;0.50;;;0.50;;
12788;SDS011;6458;42.710;23.192;2024-03-02T15:29:20;0.60;;;0.60;;
12788;SDS011;6458;42.710;23.192;2024-03-02T15:31:58;4.57;;;3.50;;
12788;SDS011;6458;42.710;23.192;2024-03-02T15:34:38;0.70;;;0.70;;
12788;SDS011;6458;42.710;23.192;2024-03-02T15:37:06;0.60;;;0.60;;
12788;SDS011;6458;42.710;23.192;2024-03-02T15:42:33;0.63;;;0.63;;
12788;SDS011;6458;42.710;23.192;2024-03-02T15:45:01;0.60;;;0.60;;
12788;SDS011;6458;42.710;23.192;2024-03-02T15:47:29;0.60;;;0.60;;
12788;SDS011;6458;42.710;23.192;2024-03-02T15:49:57;1.43;;;1.43;;
12788;SDS011;6458;42.710;23.192;2024-03-02T15:52:24;0.53;;;0.53;;
12788;SDS011;6458;42.710;23.192;2024-03-02T15:58:28;0.70;;;0.70;;
12788;SDS011;6458;42.710;23.192;2024-03-02T16:04:15;0.73;;;0.73;;
12788;SDS011;6458;42.710;23.192;2024-03-02T16:06:42;0.60;;;0.60;;
12788;SDS011;6458;42.710;23.192;2024-03-02T16:12:32;0.70;;;0.70;;
12788;SDS011;6458;42.710;23.192;2024-03-02T16:15:00;0.60;;;0.60;;